sensor_id;sensor_type;location;lat;lon;timestamp;temperature;humidity
37530;DHT22;23374;52.758;6.872;2023-07-24T00:02:04;18.40;81.90
37530;DHT22;23374;52.758;6.872;2023-07-24T00:04:24;18.40;87.30
37530;DHT22;23374;52.758;6.872;2023-07-24T00:06:44;18.40;79.60
37530;DHT22;23374;52.758;6.872;2023-07-24T00:09:05;18.40;60.60
37530;DHT22;23374;52.758;6.872;2023-07-24T00:11:25;18.30;59.80
37530;DHT22;23374;52.758;6.872;2023-07-24T00:13:45;18.30;51.70
37530;DHT22;23374;52.758;6.872;2023-07-24T00:16:09;18.30;60.10
37530;DHT22;23374;52.758;6.872;2023-07-24T00:18:30;18.20;41.40
37530;DHT22;23374;52.758;6.872;2023-07-24T00:20:50;18.30;51.40
37530;DHT22;23374;52.758;6.872;2023-07-24T00:23:10;18.30;46.30
37530;DHT22;23374;52.758;6.872;2023-07-24T00:25:31;18.20;44.40
37530;DHT22;23374;52.758;6.872;2023-07-24T00:27:51;18.20;31.40
37530;DHT22;23374;52.758;6.872;2023-07-24T00:31:39;18.20;50.20
37530;DHT22;23374;52.758;6.872;2023-07-24T00:33:59;18.20;30.90
37530;DHT22;23374;52.758;6.872;2023-07-24T00:36:20;18.20;27.30
37530;DHT22;23374;52.758;6.872;2023-07-24T00:38:40;18.10;24.70
37530;DHT22;23374;52.758;6.872;2023-07-24T00:41:00;18.10;23.70
37530;DHT22;23374;52.758;6.872;2023-07-24T00:43:21;18.10;21.20
37530;DHT22;23374;52.758;6.872;2023-07-24T00:45:43;18.10;21.30
37530;DHT22;23374;52.758;6.872;2023-07-24T00:48:05;18.10;17.10
37530;DHT22;23374;52.758;6.872;2023-07-24T00:50:27;18.10;19.30
37530;DHT22;23374;52.758;6.872;2023-07-24T00:52:48;18.00;10.70
37530;DHT22;23374;52.758;6.872;2023-07-24T00:55:10;18.00;3.90
37530;DHT22;23374;52.758;6.872;2023-07-24T00:57:32;18.00;1.00
37530;DHT22;23374;52.758;6.872;2023-07-24T00:59:52;18.00;1.00
37530;DHT22;23374;52.758;6.872;2023-07-24T01:02:13;18.00;1.00
37530;DHT22;23374;52.758;6.872;2023-07-24T01:04:33;18.00;1.30
37530;DHT22;23374;52.758;6.872;2023-07-24T01:06:55;18.00;1.00
37530;DHT22;23374;52.758;6.872;2023-07-24T01:09:15;17.90;1.00
37530;DHT22;23374;52.758;6.872;2023-07-24T01:11:50;17.90;1.00
37530;DHT22;23374;52.758;6.872;2023-07-24T01:17:48;17.90;11.30
37530;DHT22;23374;52.758;6.872;2023-07-24T01:20:11;17.90;27.80
37530;DHT22;23374;52.758;6.872;2023-07-24T01:25:35;17.80;17.30
37530;DHT22;23374;52.758;6.872;2023-07-24T01:27:58;17.80;10.00
37530;DHT22;23374;52.758;6.872;2023-07-24T01:31:44;17.80;24.90
37530;DHT22;23374;52.758;6.872;2023-07-24T01:34:05;17.80;14.40
37530;DHT22;23374;52.758;6.872;2023-07-24T01:36:25;17.70;20.00
37530;DHT22;23374;52.758;6.872;2023-07-24T01:38:47;17.70;26.30
37530;DHT22;23374;52.758;6.872;2023-07-24T01:41:07;17.70;30.90
37530;DHT22;23374;52.758;6.872;2023-07-24T01:43:30;17.70;26.70
37530;DHT22;23374;52.758;6.872;2023-07-24T01:45:50;17.70;37.40
37530;DHT22;23374;52.758;6.872;2023-07-24T01:48:11;17.70;31.60
37530;DHT22;23374;52.758;6.872;2023-07-24T01:50:32;17.70;34.10
37530;DHT22;23374;52.758;6.872;2023-07-24T01:52:52;17.70;40.70
37530;DHT22;23374;52.758;6.872;2023-07-24T01:55:13;17.70;31.80
37530;DHT22;23374;52.758;6.872;2023-07-24T01:57:33;17.70;26.30
37530;DHT22;23374;52.758;6.872;2023-07-24T01:59:54;17.70;27.10
37530;DHT22;23374;52.758;6.872;2023-07-24T02:02:14;17.60;24.10
37530;DHT22;23374;52.758;6.872;2023-07-24T02:04:34;17.60;18.50
37530;DHT22;23374;52.758;6.872;2023-07-24T02:06:54;17.60;23.00
37530;DHT22;23374;52.758;6.872;2023-07-24T02:09:17;17.60;25.50
37530;DHT22;23374;52.758;6.872;2023-07-24T02:11:38;17.60;19.70
37530;DHT22;23374;52.758;6.872;2023-07-24T02:13:59;17.60;15.80
37530;DHT22;23374;52.758;6.872;2023-07-24T02:16:19;17.60;16.10
37530;DHT22;23374;52.758;6.872;2023-07-24T02:18:42;17.60;24.20
37530;DHT22;23374;52.758;6.872;2023-07-24T02:21:03;17.50;25.00
37530;DHT22;23374;52.758;6.872;2023-07-24T02:23:24;17.50;29.20
37530;DHT22;23374;52.758;6.872;2023-07-24T02:25:44;17.50;39.20
37530;DHT22;23374;52.758;6.872;2023-07-24T02:28:04;17.50;48.70
37530;DHT22;23374;52.758;6.872;2023-07-24T02:30:25;17.50;47.40
37530;DHT22;23374;52.758;6.872;2023-07-24T02:32:45;17.50;37.00
37530;DHT22;23374;52.758;6.872;2023-07-24T02:35:06;17.50;50.00
37530;DHT22;23374;52.758;6.872;2023-07-24T02:37:26;17.50;68.30
37530;DHT22;23374;52.758;6.872;2023-07-24T02:39:47;17.50;74.70
37530;DHT22;23374;52.758;6.872;2023-07-24T02:42:07;17.50;99.90
37530;DHT22;23374;52.758;6.872;2023-07-24T02:44:27;17.50;99.90
37530;DHT22;23374;52.758;6.872;2023-07-24T02:46:48;17.50;99.90
37530;DHT22;23374;52.758;6.872;2023-07-24T02:49:08;17.50;99.90
37530;DHT22;23374;52.758;6.872;2023-07-24T02:51:29;17.50;99.90
37530;DHT22;23374;52.758;6.872;2023-07-24T02:53:49;17.50;99.90
37530;DHT22;23374;52.758;6.872;2023-07-24T02:56:10;17.50;99.90
37530;DHT22;23374;52.758;6.872;2023-07-24T02:58:30;17.60;99.90
37530;DHT22;23374;52.758;6.872;2023-07-24T03:00:50;17.60;99.90
37530;DHT22;23374;52.758;6.872;2023-07-24T03:03:10;17.60;99.90
37530;DHT22;23374;52.758;6.872;2023-07-24T03:05:31;17.50;99.90
37530;DHT22;23374;52.758;6.872;2023-07-24T03:07:51;17.60;99.90
37530;DHT22;23374;52.758;6.872;2023-07-24T03:10:12;17.60;99.90
37530;DHT22;23374;52.758;6.872;2023-07-24T03:12:37;17.60;99.90
37530;DHT22;23374;52.758;6.872;2023-07-24T03:14:58;17.60;99.90
37530;DHT22;23374;52.758;6.872;2023-07-24T03:17:18;17.60;99.90
37530;DHT22;23374;52.758;6.872;2023-07-24T03:19:39;17.50;99.90
37530;DHT22;23374;52.758;6.872;2023-07-24T03:21:59;17.60;99.90
37530;DHT22;23374;52.758;6.872;2023-07-24T03:24:20;17.60;99.90
37530;DHT22;23374;52.758;6.872;2023-07-24T03:26:41;17.60;99.90
37530;DHT22;23374;52.758;6.872;2023-07-24T03:29:01;17.60;99.90
37530;DHT22;23374;52.758;6.872;2023-07-24T03:31:21;17.60;99.90
37530;DHT22;23374;52.758;6.872;2023-07-24T03:33:41;17.60;99.90
37530;DHT22;23374;52.758;6.872;2023-07-24T03:36:01;17.60;99.90
37530;DHT22;23374;52.758;6.872;2023-07-24T03:38:22;17.60;99.90
37530;DHT22;23374;52.758;6.872;2023-07-24T03:40:42;17.60;99.90
37530;DHT22;23374;52.758;6.872;2023-07-24T03:43:03;17.60;99.90
37530;DHT22;23374;52.758;6.872;2023-07-24T03:45:23;17.70;99.90
37530;DHT22;23374;52.758;6.872;2023-07-24T03:47:44;17.60;99.90
37530;DHT22;23374;52.758;6.872;2023-07-24T03:50:05;17.60;99.90
37530;DHT22;23374;52.758;6.872;2023-07-24T03:52:25;17.60;99.90
37530;DHT22;23374;52.758;6.872;2023-07-24T03:54:46;17.70;99.90
37530;DHT22;23374;52.758;6.872;2023-07-24T03:57:06;17.60;99.90
37530;DHT22;23374;52.758;6.872;2023-07-24T03:59:26;17.60;99.90
37530;DHT22;23374;52.758;6.872;2023-07-24T04:01:47;17.60;99.90
37530;DHT22;23374;52.758;6.872;2023-07-24T04:04:07;17.60;99.90
37530;DHT22;23374;52.758;6.872;2023-07-24T04:06:27;17.60;99.90
37530;DHT22;23374;52.758;6.872;2023-07-24T04:08:47;17.60;99.90
37530;DHT22;23374;52.758;6.872;2023-07-24T04:11:07;17.60;99.90
37530;DHT22;23374;52.758;6.872;2023-07-24T04:13:29;17.60;99.90
37530;DHT22;23374;52.758;6.872;2023-07-24T04:15:49;17.60;99.90
37530;DHT22;23374;52.758;6.872;2023-07-24T04:18:09;17.60;99.90
37530;DHT22;23374;52.758;6.872;2023-07-24T04:20:30;17.60;99.90
37530;DHT22;23374;52.758;6.872;2023-07-24T04:22:50;17.60;99.90
37530;DHT22;23374;52.758;6.872;2023-07-24T04:25:10;17.60;87.00
37530;DHT22;23374;52.758;6.872;2023-07-24T04:27:30;17.60;92.60
37530;DHT22;23374;52.758;6.872;2023-07-24T04:29:50;17.60;88.80
37530;DHT22;23374;52.758;6.872;2023-07-24T04:32:11;17.50;75.50
37530;DHT22;23374;52.758;6.872;2023-07-24T04:34:31;17.60;70.10
37530;DHT22;23374;52.758;6.872;2023-07-24T04:36:53;17.60;67.30
37530;DHT22;23374;52.758;6.872;2023-07-24T04:39:13;17.60;57.50
37530;DHT22;23374;52.758;6.872;2023-07-24T04:41:33;17.60;75.80
37530;DHT22;23374;52.758;6.872;2023-07-24T04:43:54;17.60;37.10
37530;DHT22;23374;52.758;6.872;2023-07-24T04:46:14;17.60;24.30
37530;DHT22;23374;52.758;6.872;2023-07-24T04:48:35;17.60;25.00
37530;DHT22;23374;52.758;6.872;2023-07-24T04:50:56;17.60;35.20
37530;DHT22;23374;52.758;6.872;2023-07-24T04:53:16;17.60;38.10
37530;DHT22;23374;52.758;6.872;2023-07-24T04:55:36;17.60;23.40
37530;DHT22;23374;52.758;6.872;2023-07-24T04:57:57;17.60;11.30
37530;DHT22;23374;52.758;6.872;2023-07-24T05:00:17;17.60;1.00
37530;DHT22;23374;52.758;6.872;2023-07-24T05:02:37;17.60;7.90
37530;DHT22;23374;52.758;6.872;2023-07-24T05:04:58;17.60;6.00
37530;DHT22;23374;52.758;6.872;2023-07-24T05:07:18;17.60;1.00
37530;DHT22;23374;52.758;6.872;2023-07-24T05:09:39;17.60;7.20
37530;DHT22;23374;52.758;6.872;2023-07-24T05:11:59;17.60;1.00
37530;DHT22;23374;52.758;6.872;2023-07-24T05:14:20;17.60;8.80
37530;DHT22;23374;52.758;6.872;2023-07-24T05:16:40;17.70;1.20
37530;DHT22;23374;52.758;6.872;2023-07-24T05:19:01;17.60;6.30
37530;DHT22;23374;52.758;6.872;2023-07-24T05:21:21;17.60;11.30
37530;DHT22;23374;52.758;6.872;2023-07-24T05:23:41;17.60;10.60
37530;DHT22;23374;52.758;6.872;2023-07-24T05:26:03;17.60;9.80
37530;DHT22;23374;52.758;6.872;2023-07-24T05:28:25;17.60;5.30
37530;DHT22;23374;52.758;6.872;2023-07-24T05:30:46;17.60;8.50
37530;DHT22;23374;52.758;6.872;2023-07-24T05:33:06;17.60;21.40
37530;DHT22;23374;52.758;6.872;2023-07-24T05:35:27;17.60;21.80
37530;DHT22;23374;52.758;6.872;2023-07-24T05:37:48;17.60;26.10
37530;DHT22;23374;52.758;6.872;2023-07-24T05:40:09;17.60;16.10
37530;DHT22;23374;52.758;6.872;2023-07-24T05:42:29;17.60;4.50
37530;DHT22;23374;52.758;6.872;2023-07-24T05:44:49;17.60;28.10
37530;DHT22;23374;52.758;6.872;2023-07-24T05:47:10;17.60;21.60
37530;DHT22;23374;52.758;6.872;2023-07-24T05:49:30;17.60;25.00
37530;DHT22;23374;52.758;6.872;2023-07-24T05:51:50;17.60;26.10
37530;DHT22;23374;52.758;6.872;2023-07-24T05:54:12;17.70;40.40
37530;DHT22;23374;52.758;6.872;2023-07-24T05:56:32;17.70;40.20
37530;DHT22;23374;52.758;6.872;2023-07-24T05:58:53;17.80;33.80
37530;DHT22;23374;52.758;6.872;2023-07-24T06:01:13;17.80;42.70
37530;DHT22;23374;52.758;6.872;2023-07-24T06:03:34;17.90;30.60
37530;DHT22;23374;52.758;6.872;2023-07-24T06:05:54;17.90;34.70
37530;DHT22;23374;52.758;6.872;2023-07-24T06:08:15;17.90;35.10
37530;DHT22;23374;52.758;6.872;2023-07-24T06:10:35;18.00;30.10
37530;DHT22;23374;52.758;6.872;2023-07-24T06:12:56;18.00;53.20
37530;DHT22;23374;52.758;6.872;2023-07-24T06:15:16;18.00;46.60
37530;DHT22;23374;52.758;6.872;2023-07-24T06:17:37;18.00;39.70
37530;DHT22;23374;52.758;6.872;2023-07-24T06:19:57;18.00;31.20
37530;DHT22;23374;52.758;6.872;2023-07-24T06:22:18;18.00;61.80
37530;DHT22;23374;52.758;6.872;2023-07-24T06:24:38;18.10;72.80
37530;DHT22;23374;52.758;6.872;2023-07-24T06:26:58;18.10;73.10
37530;DHT22;23374;52.758;6.872;2023-07-24T06:29:19;18.10;86.00
37530;DHT22;23374;52.758;6.872;2023-07-24T06:31:45;18.20;90.40
37530;DHT22;23374;52.758;6.872;2023-07-24T06:34:06;18.20;90.30
37530;DHT22;23374;52.758;6.872;2023-07-24T06:36:27;18.20;97.90
37530;DHT22;23374;52.758;6.872;2023-07-24T06:38:47;18.30;94.60
37530;DHT22;23374;52.758;6.872;2023-07-24T06:41:07;18.40;85.60
37530;DHT22;23374;52.758;6.872;2023-07-24T06:43:28;18.40;43.10
37530;DHT22;23374;52.758;6.872;2023-07-24T06:45:48;18.50;1.00
37530;DHT22;23374;52.758;6.872;2023-07-24T06:48:09;18.60;1.00
37530;DHT22;23374;52.758;6.872;2023-07-24T06:50:29;18.60;1.00
37530;DHT22;23374;52.758;6.872;2023-07-24T06:52:50;18.60;1.00
37530;DHT22;23374;52.758;6.872;2023-07-24T06:55:11;18.70;1.00
37530;DHT22;23374;52.758;6.872;2023-07-24T06:57:32;18.70;1.00
37530;DHT22;23374;52.758;6.872;2023-07-24T06:59:53;18.70;1.00
37530;DHT22;23374;52.758;6.872;2023-07-24T07:02:13;18.80;1.00
37530;DHT22;23374;52.758;6.872;2023-07-24T07:04:34;18.80;1.00
37530;DHT22;23374;52.758;6.872;2023-07-24T07:06:54;18.80;1.00
37530;DHT22;23374;52.758;6.872;2023-07-24T07:09:14;18.80;1.00
37530;DHT22;23374;52.758;6.872;2023-07-24T07:11:35;18.80;1.00
37530;DHT22;23374;52.758;6.872;2023-07-24T07:13:56;18.80;1.00
37530;DHT22;23374;52.758;6.872;2023-07-24T07:16:16;18.80;1.00
37530;DHT22;23374;52.758;6.872;2023-07-24T07:18:38;18.80;1.00
37530;DHT22;23374;52.758;6.872;2023-07-24T07:20:59;18.80;1.00
37530;DHT22;23374;52.758;6.872;2023-07-24T07:23:20;18.80;1.00
37530;DHT22;23374;52.758;6.872;2023-07-24T07:25:41;18.80;1.00
37530;DHT22;23374;52.758;6.872;2023-07-24T07:28:04;18.90;1.00
37530;DHT22;23374;52.758;6.872;2023-07-24T07:30:24;18.90;1.00
37530;DHT22;23374;52.758;6.872;2023-07-24T07:32:45;18.90;1.00
37530;DHT22;23374;52.758;6.872;2023-07-24T07:35:06;18.90;1.00
37530;DHT22;23374;52.758;6.872;2023-07-24T07:37:27;18.90;99.90
37530;DHT22;23374;52.758;6.872;2023-07-24T07:39:47;19.00;99.90
37530;DHT22;23374;52.758;6.872;2023-07-24T07:42:07;19.00;99.90
37530;DHT22;23374;52.758;6.872;2023-07-24T07:44:28;19.00;99.90
37530;DHT22;23374;52.758;6.872;2023-07-24T07:46:48;19.10;99.90
37530;DHT22;23374;52.758;6.872;2023-07-24T07:49:08;19.10;99.90
37530;DHT22;23374;52.758;6.872;2023-07-24T07:51:28;19.20;99.90
37530;DHT22;23374;52.758;6.872;2023-07-24T07:53:49;19.30;99.90
37530;DHT22;23374;52.758;6.872;2023-07-24T07:56:09;19.30;1.00
37530;DHT22;23374;52.758;6.872;2023-07-24T07:58:30;19.30;1.00
37530;DHT22;23374;52.758;6.872;2023-07-24T08:00:50;19.40;1.00
37530;DHT22;23374;52.758;6.872;2023-07-24T08:03:11;19.40;1.00
37530;DHT22;23374;52.758;6.872;2023-07-24T08:05:31;19.40;1.00
37530;DHT22;23374;52.758;6.872;2023-07-24T08:07:52;19.50;1.00
37530;DHT22;23374;52.758;6.872;2023-07-24T08:10:12;19.60;1.00
37530;DHT22;23374;52.758;6.872;2023-07-24T08:12:34;19.70;1.00
37530;DHT22;23374;52.758;6.872;2023-07-24T08:14:58;19.80;99.90
37530;DHT22;23374;52.758;6.872;2023-07-24T08:17:18;19.80;1.00
37530;DHT22;23374;52.758;6.872;2023-07-24T08:19:40;19.80;1.00
37530;DHT22;23374;52.758;6.872;2023-07-24T08:22:00;19.80;1.00
37530;DHT22;23374;52.758;6.872;2023-07-24T08:24:21;19.80;1.00
37530;DHT22;23374;52.758;6.872;2023-07-24T08:26:41;19.90;99.90
37530;DHT22;23374;52.758;6.872;2023-07-24T08:29:01;20.00;1.00
37530;DHT22;23374;52.758;6.872;2023-07-24T08:31:22;20.00;1.00
37530;DHT22;23374;52.758;6.872;2023-07-24T08:33:42;20.10;1.00
37530;DHT22;23374;52.758;6.872;2023-07-24T08:36:05;20.20;1.00
37530;DHT22;23374;52.758;6.872;2023-07-24T08:38:26;20.40;1.00
37530;DHT22;23374;52.758;6.872;2023-07-24T08:40:46;20.50;1.00
37530;DHT22;23374;52.758;6.872;2023-07-24T08:43:07;20.60;99.90
37530;DHT22;23374;52.758;6.872;2023-07-24T08:45:28;20.60;60.80
37530;DHT22;23374;52.758;6.872;2023-07-24T08:47:50;20.60;99.90
37530;DHT22;23374;52.758;6.872;2023-07-24T08:50:11;20.50;99.90
37530;DHT22;23374;52.758;6.872;2023-07-24T08:52:32;20.50;99.90
37530;DHT22;23374;52.758;6.872;2023-07-24T08:54:55;20.60;99.90
37530;DHT22;23374;52.758;6.872;2023-07-24T08:57:17;20.60;1.00
37530;DHT22;23374;52.758;6.872;2023-07-24T08:59:37;20.70;99.90
37530;DHT22;23374;52.758;6.872;2023-07-24T09:01:58;20.70;99.90
37530;DHT22;23374;52.758;6.872;2023-07-24T09:04:18;20.70;1.00
37530;DHT22;23374;52.758;6.872;2023-07-24T09:06:42;20.80;99.90
37530;DHT22;23374;52.758;6.872;2023-07-24T09:09:15;20.90;99.90
37530;DHT22;23374;52.758;6.872;2023-07-24T09:11:49;21.00;1.00
37530;DHT22;23374;52.758;6.872;2023-07-24T09:14:23;20.90;1.00
37530;DHT22;23374;52.758;6.872;2023-07-24T09:16:44;20.90;1.00
37530;DHT22;23374;52.758;6.872;2023-07-24T09:19:04;20.80;29.00
37530;DHT22;23374;52.758;6.872;2023-07-24T09:21:31;20.80;47.70
37530;DHT22;23374;52.758;6.872;2023-07-24T09:23:52;20.90;20.20
37530;DHT22;23374;52.758;6.872;2023-07-24T09:26:12;20.90;1.00
37530;DHT22;23374;52.758;6.872;2023-07-24T09:28:34;21.00;1.00
37530;DHT22;23374;52.758;6.872;2023-07-24T09:30:57;20.90;1.00
37530;DHT22;23374;52.758;6.872;2023-07-24T09:33:18;21.00;1.00
37530;DHT22;23374;52.758;6.872;2023-07-24T09:35:38;21.20;58.50
37530;DHT22;23374;52.758;6.872;2023-07-24T09:38:08;21.40;1.00
37530;DHT22;23374;52.758;6.872;2023-07-24T09:40:36;21.50;99.90
37530;DHT22;23374;52.758;6.872;2023-07-24T09:42:56;21.60;1.00
37530;DHT22;23374;52.758;6.872;2023-07-24T09:45:17;21.60;1.00
37530;DHT22;23374;52.758;6.872;2023-07-24T09:47:39;21.70;1.00
37530;DHT22;23374;52.758;6.872;2023-07-24T09:50:03;21.80;99.90
37530;DHT22;23374;52.758;6.872;2023-07-24T09:52:24;21.80;1.00
37530;DHT22;23374;52.758;6.872;2023-07-24T09:56:09;21.80;99.90
37530;DHT22;23374;52.758;6.872;2023-07-24T09:58:35;21.80;99.90
37530;DHT22;23374;52.758;6.872;2023-07-24T10:00:57;21.80;1.00
37530;DHT22;23374;52.758;6.872;2023-07-24T10:03:17;21.80;99.90
37530;DHT22;23374;52.758;6.872;2023-07-24T10:05:38;21.90;66.60
37530;DHT22;23374;52.758;6.872;2023-07-24T10:07:59;22.00;99.90
37530;DHT22;23374;52.758;6.872;2023-07-24T10:10:20;22.00;1.00
37530;DHT22;23374;52.758;6.872;2023-07-24T10:12:41;22.10;1.00
37530;DHT22;23374;52.758;6.872;2023-07-24T10:15:02;22.20;1.00
37530;DHT22;23374;52.758;6.872;2023-07-24T10:17:40;22.30;1.00
37530;DHT22;23374;52.758;6.872;2023-07-24T10:20:07;22.20;99.90
37530;DHT22;23374;52.758;6.872;2023-07-24T10:22:28;22.20;1.00
37530;DHT22;23374;52.758;6.872;2023-07-24T10:24:48;22.20;1.00
37530;DHT22;23374;52.758;6.872;2023-07-24T10:27:09;22.20;1.00
37530;DHT22;23374;52.758;6.872;2023-07-24T10:29:35;22.20;1.00
37530;DHT22;23374;52.758;6.872;2023-07-24T10:31:56;22.10;1.00
37530;DHT22;23374;52.758;6.872;2023-07-24T10:34:16;22.20;1.00
37530;DHT22;23374;52.758;6.872;2023-07-24T10:36:37;22.20;99.90
37530;DHT22;23374;52.758;6.872;2023-07-24T10:38:59;22.30;44.30
37530;DHT22;23374;52.758;6.872;2023-07-24T10:41:21;22.30;99.90
37530;DHT22;23374;52.758;6.872;2023-07-24T10:43:47;22.40;6.40
37530;DHT22;23374;52.758;6.872;2023-07-24T10:46:09;22.40;1.00
37530;DHT22;23374;52.758;6.872;2023-07-24T10:48:29;22.50;1.00
37530;DHT22;23374;52.758;6.872;2023-07-24T10:50:51;22.60;1.00
37530;DHT22;23374;52.758;6.872;2023-07-24T10:53:15;22.70;1.00
37530;DHT22;23374;52.758;6.872;2023-07-24T10:55:37;22.60;1.00
37530;DHT22;23374;52.758;6.872;2023-07-24T10:57:57;22.60;99.90
37530;DHT22;23374;52.758;6.872;2023-07-24T11:00:18;22.60;99.90
37530;DHT22;23374;52.758;6.872;2023-07-24T11:02:38;22.70;1.00
37530;DHT22;23374;52.758;6.872;2023-07-24T11:04:59;22.70;1.00
37530;DHT22;23374;52.758;6.872;2023-07-24T11:07:21;22.80;1.00
37530;DHT22;23374;52.758;6.872;2023-07-24T11:09:41;22.90;1.00
37530;DHT22;23374;52.758;6.872;2023-07-24T11:12:16;23.00;1.00
37530;DHT22;23374;52.758;6.872;2023-07-24T11:14:49;23.20;99.90
37530;DHT22;23374;52.758;6.872;2023-07-24T11:17:10;23.30;1.00
37530;DHT22;23374;52.758;6.872;2023-07-24T11:19:30;23.30;1.00
37530;DHT22;23374;52.758;6.872;2023-07-24T11:21:51;23.40;99.90
37530;DHT22;23374;52.758;6.872;2023-07-24T11:24:11;23.30;99.90
37530;DHT22;23374;52.758;6.872;2023-07-24T11:26:31;23.30;1.00
37530;DHT22;23374;52.758;6.872;2023-07-24T11:28:53;23.40;99.90
37530;DHT22;23374;52.758;6.872;2023-07-24T11:31:13;23.50;99.90
37530;DHT22;23374;52.758;6.872;2023-07-24T11:33:35;23.50;1.00
37530;DHT22;23374;52.758;6.872;2023-07-24T11:35:56;23.40;99.90
37530;DHT22;23374;52.758;6.872;2023-07-24T11:38:16;23.30;1.00
37530;DHT22;23374;52.758;6.872;2023-07-24T11:40:40;23.30;1.00
37530;DHT22;23374;52.758;6.872;2023-07-24T11:43:00;23.20;1.00
37530;DHT22;23374;52.758;6.872;2023-07-24T11:45:21;23.10;99.90
37530;DHT22;23374;52.758;6.872;2023-07-24T11:47:49;23.10;1.00
37530;DHT22;23374;52.758;6.872;2023-07-24T11:50:10;23.10;1.00
37530;DHT22;23374;52.758;6.872;2023-07-24T11:52:48;23.10;1.00
37530;DHT22;23374;52.758;6.872;2023-07-24T11:55:12;23.10;99.90
37530;DHT22;23374;52.758;6.872;2023-07-24T11:57:33;23.10;99.90
37530;DHT22;23374;52.758;6.872;2023-07-24T11:59:53;23.10;1.00
37530;DHT22;23374;52.758;6.872;2023-07-24T12:02:14;23.10;1.00
37530;DHT22;23374;52.758;6.872;2023-07-24T12:04:34;23.20;99.90
37530;DHT22;23374;52.758;6.872;2023-07-24T12:06:55;23.10;1.00
37530;DHT22;23374;52.758;6.872;2023-07-24T12:09:15;23.20;1.00
37530;DHT22;23374;52.758;6.872;2023-07-24T12:11:43;23.20;99.90
37530;DHT22;23374;52.758;6.872;2023-07-24T12:14:04;23.20;99.90
37530;DHT22;23374;52.758;6.872;2023-07-24T12:16:24;23.20;99.90
37530;DHT22;23374;52.758;6.872;2023-07-24T12:18:45;23.20;99.90
37530;DHT22;23374;52.758;6.872;2023-07-24T12:21:05;23.20;99.90
37530;DHT22;23374;52.758;6.872;2023-07-24T12:23:25;23.20;1.00
37530;DHT22;23374;52.758;6.872;2023-07-24T12:25:45;23.20;99.90
37530;DHT22;23374;52.758;6.872;2023-07-24T12:28:05;23.20;99.90
37530;DHT22;23374;52.758;6.872;2023-07-24T12:30:26;23.20;99.90
37530;DHT22;23374;52.758;6.872;2023-07-24T12:32:46;23.20;99.90
37530;DHT22;23374;52.758;6.872;2023-07-24T12:35:10;23.20;99.90
37530;DHT22;23374;52.758;6.872;2023-07-24T12:37:32;23.20;99.90
37530;DHT22;23374;52.758;6.872;2023-07-24T12:39:52;23.10;99.90
37530;DHT22;23374;52.758;6.872;2023-07-24T12:42:12;23.20;1.00
37530;DHT22;23374;52.758;6.872;2023-07-24T12:44:33;23.20;99.90
37530;DHT22;23374;52.758;6.872;2023-07-24T12:46:53;23.20;27.50
37530;DHT22;23374;52.758;6.872;2023-07-24T12:49:13;23.20;99.90
37530;DHT22;23374;52.758;6.872;2023-07-24T12:51:34;23.20;21.40
37530;DHT22;23374;52.758;6.872;2023-07-24T12:53:54;23.30;99.90
37530;DHT22;23374;52.758;6.872;2023-07-24T12:56:14;23.50;99.90
37530;DHT22;23374;52.758;6.872;2023-07-24T12:58:34;23.50;99.90
37530;DHT22;23374;52.758;6.872;2023-07-24T13:00:55;23.60;1.00
37530;DHT22;23374;52.758;6.872;2023-07-24T13:03:15;23.60;99.90
37530;DHT22;23374;52.758;6.872;2023-07-24T13:05:37;23.60;99.90
37530;DHT22;23374;52.758;6.872;2023-07-24T13:07:58;23.70;17.40
37530;DHT22;23374;52.758;6.872;2023-07-24T13:10:18;23.60;95.50
37530;DHT22;23374;52.758;6.872;2023-07-24T13:12:39;23.60;99.90
37530;DHT22;23374;52.758;6.872;2023-07-24T13:14:59;23.70;99.90
37530;DHT22;23374;52.758;6.872;2023-07-24T13:17:19;23.70;99.90
37530;DHT22;23374;52.758;6.872;2023-07-24T13:19:39;23.80;99.90
37530;DHT22;23374;52.758;6.872;2023-07-24T13:22:00;23.70;99.90
37530;DHT22;23374;52.758;6.872;2023-07-24T13:24:20;23.90;1.00
37530;DHT22;23374;52.758;6.872;2023-07-24T13:26:40;24.00;99.90
37530;DHT22;23374;52.758;6.872;2023-07-24T13:29:01;24.10;99.90
37530;DHT22;23374;52.758;6.872;2023-07-24T13:31:22;24.20;59.80
37530;DHT22;23374;52.758;6.872;2023-07-24T13:33:43;24.40;1.00
37530;DHT22;23374;52.758;6.872;2023-07-24T13:36:04;24.40;1.00
37530;DHT22;23374;52.758;6.872;2023-07-24T13:38:24;24.40;1.00
37530;DHT22;23374;52.758;6.872;2023-07-24T13:40:44;24.20;1.00
37530;DHT22;23374;52.758;6.872;2023-07-24T13:43:05;24.20;1.00
37530;DHT22;23374;52.758;6.872;2023-07-24T13:45:25;24.10;99.90
37530;DHT22;23374;52.758;6.872;2023-07-24T13:47:46;24.10;1.00
37530;DHT22;23374;52.758;6.872;2023-07-24T13:50:07;24.20;1.00
37530;DHT22;23374;52.758;6.872;2023-07-24T13:52:27;24.10;1.00
37530;DHT22;23374;52.758;6.872;2023-07-24T13:54:47;24.00;1.00
37530;DHT22;23374;52.758;6.872;2023-07-24T13:57:07;23.70;1.00
37530;DHT22;23374;52.758;6.872;2023-07-24T13:59:28;23.50;99.90
37530;DHT22;23374;52.758;6.872;2023-07-24T14:01:49;23.20;99.90
37530;DHT22;23374;52.758;6.872;2023-07-24T14:04:09;23.00;99.90
37530;DHT22;23374;52.758;6.872;2023-07-24T14:06:31;22.60;99.90
37530;DHT22;23374;52.758;6.872;2023-07-24T14:08:52;22.30;1.00
37530;DHT22;23374;52.758;6.872;2023-07-24T14:11:12;21.70;18.30
37530;DHT22;23374;52.758;6.872;2023-07-24T14:13:32;20.90;99.90
37530;DHT22;23374;52.758;6.872;2023-07-24T14:15:53;20.10;1.00
37530;DHT22;23374;52.758;6.872;2023-07-24T14:18:13;19.70;99.90
37530;DHT22;23374;52.758;6.872;2023-07-24T14:20:34;19.50;1.00
37530;DHT22;23374;52.758;6.872;2023-07-24T14:22:54;19.40;1.00
37530;DHT22;23374;52.758;6.872;2023-07-24T14:25:14;19.30;99.90
37530;DHT22;23374;52.758;6.872;2023-07-24T14:27:34;19.30;99.90
37530;DHT22;23374;52.758;6.872;2023-07-24T14:29:54;19.30;99.90
37530;DHT22;23374;52.758;6.872;2023-07-24T14:32:14;19.30;99.90
37530;DHT22;23374;52.758;6.872;2023-07-24T14:34:35;19.30;1.00
37530;DHT22;23374;52.758;6.872;2023-07-24T14:36:55;19.30;1.00
37530;DHT22;23374;52.758;6.872;2023-07-24T14:39:15;19.20;1.00
37530;DHT22;23374;52.758;6.872;2023-07-24T14:41:36;19.20;1.00
37530;DHT22;23374;52.758;6.872;2023-07-24T14:43:56;19.30;1.00
37530;DHT22;23374;52.758;6.872;2023-07-24T14:46:17;19.30;1.00
37530;DHT22;23374;52.758;6.872;2023-07-24T14:48:37;19.40;1.00
37530;DHT22;23374;52.758;6.872;2023-07-24T14:50:57;19.50;1.00
37530;DHT22;23374;52.758;6.872;2023-07-24T14:53:17;19.50;1.00
37530;DHT22;23374;52.758;6.872;2023-07-24T14:55:37;19.50;1.00
37530;DHT22;23374;52.758;6.872;2023-07-24T14:57:58;19.50;1.00
37530;DHT22;23374;52.758;6.872;2023-07-24T15:00:18;19.50;1.00
37530;DHT22;23374;52.758;6.872;2023-07-24T15:02:38;19.50;1.00
37530;DHT22;23374;52.758;6.872;2023-07-24T15:04:59;19.60;1.00
37530;DHT22;23374;52.758;6.872;2023-07-24T15:07:20;19.60;99.90
37530;DHT22;23374;52.758;6.872;2023-07-24T15:09:40;19.60;99.90